Time;durP1;ratioP1;P1;durP2;ratioP2;P2;SDS_P1;SDS_P2;PMS_P1;PMS_P2;Temp;Humidity;BMP_temperature;BMP_pressure;BME280_temperature;BME280_humidity;BME280_pressure;Samples;Min_cycle;Max_cycle;Signal;HPM_P1;HPM_P2
2022/07/21 00:01:59;;;;;;;3.30;3.00;;;24.90;42.60;;;;;;604550;238;26612;-74
2022/07/21 00:04:26;;;;;;;3.15;2.95;;;24.90;42.50;;;;;;604058;236;26587;-74
2022/07/21 00:06:53;;;;;;;3.33;3.03;;;24.90;42.60;;;;;;601526;238;26628;-74
2022/07/21 00:09:20;;;;;;;3.42;3.22;;;24.80;42.50;;;;;;607025;235;27289;-74
2022/07/21 00:11:47;;;;;;;3.80;3.50;;;24.80;42.90;;;;;;601445;238;26674;-74
2022/07/21 00:14:14;;;;;;;3.03;2.83;;;24.70;42.70;;;;;;606714;233;26896;-74
2022/07/21 00:16:42;;;;;;;3.60;3.30;;;24.60;42.90;;;;;;611134;234;26581;-74
2022/07/21 00:19:09;;;;;;;3.35;3.05;;;24.60;43.30;;;;;;610797;235;26854;-75
2022/07/21 00:21:36;;;;;;;4.25;3.40;;;24.60;43.20;;;;;;611077;235;26628;-74
2022/07/21 00:24:03;;;;;;;3.58;3.37;;;24.50;43.20;;;;;;606446;235;26908;-74
2022/07/21 00:26:31;;;;;;;3.50;3.20;;;24.50;43.20;;;;;;603444;236;27013;-74
2022/07/21 00:28:58;;;;;;;3.10;2.90;;;24.50;43.30;;;;;;602515;236;26542;-74
2022/07/21 00:31:25;;;;;;;3.50;3.20;;;24.50;43.50;;;;;;612344;235;26837;-73
2022/07/21 00:33:52;;;;;;;3.40;3.20;;;24.40;43.40;;;;;;609101;234;26550;-74
2022/07/21 00:36:19;;;;;;;3.47;3.22;;;24.30;43.50;;;;;;602093;238;26842;-73
2022/07/21 00:38:47;;;;;;;3.47;3.20;;;24.30;43.60;;;;;;604035;238;26571;-74
2022/07/21 00:41:15;;;;;;;3.30;3.10;;;24.30;43.50;;;;;;607927;235;26639;-74
2022/07/21 00:43:43;;;;;;;2.90;2.75;;;24.30;43.50;;;;;;603536;236;26951;-74
2022/07/21 00:46:10;;;;;;;3.03;2.83;;;24.30;43.70;;;;;;601751;238;26573;-74
2022/07/21 00:48:37;;;;;;;3.22;3.03;;;24.30;43.60;;;;;;601770;237;26835;-74
2022/07/21 00:51:04;;;;;;;3.58;3.22;;;24.30;43.70;;;;;;602700;236;26620;-74
2022/07/21 00:53:32;;;;;;;3.58;3.30;;;24.30;43.90;;;;;;605989;235;26674;-74
2022/07/21 00:55:59;;;;;;;3.35;3.05;;;24.20;43.90;;;;;;607355;235;26567;-73
2022/07/21 00:58:27;;;;;;;3.67;3.37;;;24.20;43.80;;;;;;607273;234;26632;-73
2022/07/21 01:00:55;;;;;;;3.58;3.28;;;24.30;44.00;;;;;;605895;236;26584;-73
2022/07/21 01:03:23;;;;;;;3.70;3.40;;;24.30;43.90;;;;;;606939;231;26622;-74
2022/07/21 01:05:51;;;;;;;3.55;3.25;;;24.30;44.00;;;;;;601465;237;26652;-74
2022/07/21 01:08:18;;;;;;;3.58;3.33;;;24.30;44.00;;;;;;601448;237;26682;-74
2022/07/21 01:10:45;;;;;;;3.90;3.60;;;24.30;43.70;;;;;;601637;236;26634;-74
2022/07/21 01:13:12;;;;;;;3.70;3.40;;;24.30;43.80;;;;;;601488;233;27330;-74
2022/07/21 01:15:40;;;;;;;3.78;3.50;;;24.40;43.80;;;;;;601536;236;26640;-74
2022/07/21 01:18:07;;;;;;;3.83;3.53;;;24.40;43.90;;;;;;604978;236;26854;-74
2022/07/21 01:20:35;;;;;;;3.20;3.00;;;24.40;44.00;;;;;;606278;235;26623;-74
2022/07/21 01:23:02;;;;;;;3.08;2.87;;;24.40;43.90;;;;;;605819;236;26665;-74
2022/07/21 01:25:29;;;;;;;3.50;3.20;;;24.30;43.70;;;;;;610488;233;26859;-75
2022/07/21 01:27:56;;;;;;;3.47;3.17;;;24.30;43.90;;;;;;605429;235;26629;-75
2022/07/21 01:30:24;;;;;;;3.28;3.08;;;24.30;44.20;;;;;;604078;237;26874;-74
2022/07/21 01:32:51;;;;;;;3.87;3.10;;;24.30;44.10;;;;;;605364;237;26611;-74
2022/07/21 01:35:18;;;;;;;3.10;2.90;;;24.30;44.10;;;;;;602972;235;26954;-74
2022/07/21 01:37:46;;;;;;;3.60;3.00;;;24.20;44.40;;;;;;602066;238;26577;-74
2022/07/21 01:42:47;;;;;;;3.03;2.83;;;24.20;44.80;;;;;;609734;235;26825;-74
2022/07/21 01:45:14;;;;;;;3.15;2.83;;;24.20;44.30;;;;;;610234;235;26635;-74
2022/07/21 01:47:42;;;;;;;3.12;2.92;;;24.20;44.50;;;;;;610132;231;26689;-74
2022/07/21 01:50:10;;;;;;;3.08;2.87;;;24.20;44.40;;;;;;610148;235;26620;-74
2022/07/21 01:52:38;;;;;;;3.45;3.15;;;24.10;44.60;;;;;;610106;235;26661;-74
2022/07/21 01:55:07;;;;;;;2.72;2.53;;;24.10;44.80;;;;;;608237;236;26658;-74
2022/07/21 01:57:35;;;;;;;2.92;2.72;;;24.00;44.70;;;;;;608182;235;26638;-74
2022/07/21 02:00:03;;;;;;;2.87;2.67;;;24.00;44.90;;;;;;605027;232;26584;-75
2022/07/21 02:02:30;;;;;;;2.67;2.58;;;23.90;44.80;;;;;;601988;236;26872;-74
2022/07/21 02:04:58;;;;;;;3.05;2.85;;;23.90;45.00;;;;;;606588;235;26630;-74
2022/07/21 02:07:27;;;;;;;2.67;2.50;;;23.90;45.00;;;;;;609856;236;26581;-74
2022/07/21 02:09:54;;;;;;;2.70;2.50;;;23.90;45.00;;;;;;604316;235;27099;-74
2022/07/21 02:12:22;;;;;;;2.75;2.55;;;23.90;45.00;;;;;;605059;235;26660;-74
2022/07/21 02:14:50;;;;;;;2.95;2.70;;;23.80;45.10;;;;;;602134;238;26591;-74
2022/07/21 02:17:18;;;;;;;2.92;2.72;;;23.70;45.10;;;;;;604560;237;26598;-74
2022/07/21 02:19:46;;;;;;;3.08;2.87;;;23.70;45.30;;;;;;604053;237;26593;-74
2022/07/21 02:22:14;;;;;;;2.90;2.70;;;23.70;45.60;;;;;;605819;235;26656;-74
2022/07/21 02:24:41;;;;;;;3.08;2.85;;;23.70;45.60;;;;;;605021;234;26601;-74
2022/07/21 02:27:08;;;;;;;2.83;2.62;;;23.60;45.70;;;;;;604454;236;26915;-74
2022/07/21 02:29:35;;;;;;;2.58;2.40;;;23.70;45.50;;;;;;608081;236;26832;-74
2022/07/21 02:32:03;;;;;;;2.85;2.65;;;23.70;45.60;;;;;;604561;235;26654;-74
2022/07/21 02:34:30;;;;;;;2.65;2.45;;;23.60;45.70;;;;;;607776;236;26821;-74
2022/07/21 02:36:57;;;;;;;2.35;2.25;;;23.70;45.70;;;;;;609471;233;26628;-74
2022/07/21 02:39:25;;;;;;;2.37;2.28;;;23.70;45.90;;;;;;607265;235;26640;-75
2022/07/21 02:41:52;;;;;;;2.80;2.60;;;23.60;45.90;;;;;;609552;234;26660;-73
2022/07/21 02:44:20;;;;;;;2.65;2.50;;;23.60;45.80;;;;;;602945;235;26629;-74
2022/07/21 02:46:47;;;;;;;2.50;2.40;;;23.60;45.80;;;;;;603874;235;26645;-74
2022/07/21 02:49:14;;;;;;;2.90;2.72;;;23.50;45.90;;;;;;602134;238;26810;-74
2022/07/21 02:51:43;;;;;;;2.72;2.62;;;23.50;46.30;;;;;;610186;236;27518;-74
2022/07/21 02:54:10;;;;;;;3.15;2.85;;;23.50;46.20;;;;;;606555;235;26617;-73
2022/07/21 02:56:38;;;;;;;2.70;2.50;;;23.50;46.00;;;;;;607336;236;26824;-74
2022/07/21 02:59:04;;;;;;;2.92;2.72;;;23.50;46.30;;;;;;603113;236;26581;-74
2022/07/21 03:01:31;;;;;;;3.42;2.60;;;23.60;46.10;;;;;;608513;236;26862;-74
2022/07/21 03:03:58;;;;;;;2.78;2.60;;;23.60;46.10;;;;;;607048;235;26598;-74
2022/07/21 03:06:26;;;;;;;2.53;2.42;;;23.60;46.10;;;;;;609755;236;26859;-74
2022/07/21 03:08:53;;;;;;;2.65;2.53;;;23.70;46.10;;;;;;602905;236;26569;-74
2022/07/21 03:11:20;;;;;;;3.37;3.17;;;23.70;46.10;;;;;;601755;237;26867;-74
2022/07/21 03:13:48;;;;;;;2.80;2.60;;;23.70;46.10;;;;;;605468;236;26587;-74
2022/07/21 03:16:16;;;;;;;2.72;2.50;;;23.80;45.90;;;;;;609869;236;26577;-73
2022/07/21 03:18:44;;;;;;;2.80;2.62;;;23.70;45.60;;;;;;605492;236;26575;-73
2022/07/21 03:21:12;;;;;;;2.53;2.40;;;23.70;45.80;;;;;;607445;236;26609;-73
2022/07/21 03:23:39;;;;;;;2.90;2.70;;;23.70;45.80;;;;;;609946;235;26657;-74
2022/07/21 03:26:07;;;;;;;2.90;2.70;;;23.70;45.80;;;;;;608380;235;26587;-74
2022/07/21 03:28:34;;;;;;;2.62;2.42;;;23.70;45.80;;;;;;604614;238;26827;-74
2022/07/21 03:31:02;;;;;;;2.50;2.40;;;23.70;45.90;;;;;;603114;236;26581;-75
2022/07/21 03:33:29;;;;;;;2.75;2.55;;;23.70;45.80;;;;;;601538;237;27299;-74
2022/07/21 03:35:58;;;;;;;2.60;2.40;;;23.70;45.80;;;;;;607313;236;26580;-74
2022/07/21 03:38:23;;;;;;;2.97;2.78;;;23.70;45.90;;;;;;609925;235;26838;-75
2022/07/21 03:40:50;;;;;;;2.78;2.58;;;23.70;46.30;;;;;;604605;234;26586;-74
2022/07/21 03:43:18;;;;;;;2.83;2.62;;;23.70;46.10;;;;;;605551;232;27309;-74
2022/07/21 03:45:45;;;;;;;3.05;2.75;;;23.60;46.40;;;;;;609888;234;26844;-74
2022/07/21 03:48:12;;;;;;;3.05;2.65;;;23.60;46.40;;;;;;610548;233;26849;-75
2022/07/21 03:50:39;;;;;;;2.42;2.33;;;23.60;46.20;;;;;;603861;234;26636;-74
2022/07/21 03:53:06;;;;;;;3.25;2.90;;;23.60;46.30;;;;;;604580;235;26863;-74
2022/07/21 03:55:34;;;;;;;2.58;2.47;;;23.60;46.30;;;;;;605483;235;26638;-74
2022/07/21 03:58:01;;;;;;;2.70;2.50;;;23.60;46.20;;;;;;602250;237;26942;-74
2022/07/21 04:00:29;;;;;;;2.40;2.30;;;23.70;46.00;;;;;;604145;237;26597;-74
2022/07/21 04:02:56;;;;;;;2.67;2.58;;;23.70;46.00;;;;;;603286;235;26848;-74
2022/07/21 04:05:23;;;;;;;3.05;2.85;;;23.70;45.80;;;;;;605098;237;26641;-74
2022/07/21 04:07:51;;;;;;;3.00;2.80;;;23.70;46.20;;;;;;602234;236;26916;-74
2022/07/21 04:10:19;;;;;;;2.50;2.40;;;23.60;46.10;;;;;;604692;236;26591;-75
2022/07/21 04:12:47;;;;;;;2.45;2.30;;;23.70;46.00;;;;;;608032;236;26672;-75
2022/07/21 04:15:14;;;;;;;2.60;2.50;;;23.60;45.90;;;;;;602189;237;26553;-75
2022/07/21 04:17:42;;;;;;;2.58;2.42;;;23.70;46.00;;;;;;603642;237;26556;-75
2022/07/21 04:20:09;;;;;;;2.62;2.53;;;23.70;46.20;;;;;;606871;236;26838;-74
2022/07/21 04:22:36;;;;;;;2.50;2.40;;;23.70;46.10;;;;;;609619;235;26894;-74
2022/07/21 04:25:04;;;;;;;2.87;2.67;;;23.70;46.10;;;;;;602936;237;26566;-74
2022/07/21 04:27:31;;;;;;;3.33;3.05;;;23.70;46.10;;;;;;608439;235;27112;-75
2022/07/21 04:29:58;;;;;;;3.58;3.28;;;23.70;46.10;;;;;;607024;234;26542;-74
2022/07/21 04:32:25;;;;;;;3.03;2.83;;;23.70;46.20;;;;;;603961;235;26894;-75
2022/07/21 04:34:53;;;;;;;2.95;2.65;;;23.80;46.40;;;;;;601701;236;27398;-75
2022/07/21 04:37:21;;;;;;;2.87;2.67;;;23.80;46.50;;;;;;601527;237;26626;-74
2022/07/21 04:39:47;;;;;;;2.85;2.65;;;23.80;46.50;;;;;;603420;236;26898;-74
2022/07/21 04:42:15;;;;;;;2.92;2.62;;;23.80;46.70;;;;;;604498;238;26582;-74
2022/07/21 04:44:42;;;;;;;3.00;2.80;;;23.80;46.70;;;;;;604560;237;26808;-74
2022/07/21 04:47:09;;;;;;;2.97;2.78;;;23.80;46.70;;;;;;604253;236;26581;-73
2022/07/21 04:49:36;;;;;;;3.50;3.20;;;23.80;46.70;;;;;;602972;236;26831;-73
2022/07/21 04:52:04;;;;;;;3.72;3.08;;;23.90;46.80;;;;;;603212;236;26597;-73
2022/07/21 04:54:31;;;;;;;3.47;3.17;;;24.00;46.50;;;;;;603806;236;26601;-74
2022/07/21 04:56:59;;;;;;;2.92;2.72;;;24.10;46.20;;;;;;604019;236;26585;-73
2022/07/21 04:59:25;;;;;;;4.30;3.17;;;24.20;46.10;;;;;;608702;234;26715;-73
2022/07/21 05:01:53;;;;;;;3.62;3.33;;;24.30;46.00;;;;;;603110;237;26849;-74
2022/07/21 05:04:20;;;;;;;3.65;3.35;;;24.20;46.10;;;;;;604349;237;27290;-74
2022/07/21 05:06:49;;;;;;;3.67;3.37;;;24.10;46.70;;;;;;607338;235;26596;-74
2022/07/21 05:09:17;;;;;;;3.42;3.12;;;24.10;47.20;;;;;;606546;235;26573;-73
2022/07/21 05:11:45;;;;;;;3.35;3.15;;;24.00;47.40;;;;;;605809;232;26615;-73
2022/07/21 05:14:12;;;;;;;3.20;3.00;;;24.00;47.40;;;;;;607352;235;26608;-73
2022/07/21 05:16:39;;;;;;;3.87;3.42;;;24.00;47.70;;;;;;605653;236;26617;-74
2022/07/21 05:19:06;;;;;;;3.37;3.17;;;24.00;48.00;;;;;;610357;235;26894;-73
2022/07/21 05:21:33;;;;;;;3.42;3.20;;;24.00;48.10;;;;;;602374;236;26602;-73
2022/07/21 05:24:01;;;;;;;3.60;3.30;;;24.10;48.40;;;;;;609248;235;26737;-73
2022/07/21 05:26:28;;;;;;;3.80;3.50;;;24.10;48.70;;;;;;612720;235;26580;-74
2022/07/21 05:28:55;;;;;;;3.87;3.58;;;24.10;48.90;;;;;;607183;235;26835;-74
2022/07/21 05:31:22;;;;;;;5.10;4.22;;;24.10;49.10;;;;;;602789;236;26590;-74
2022/07/21 05:33:49;;;;;;;4.62;3.85;;;24.10;49.20;;;;;;603923;236;26835;-74
2022/07/21 05:36:18;;;;;;;4.90;3.90;;;24.20;49.20;;;;;;601721;236;26623;-73
2022/07/21 05:38:44;;;;;;;9.00;5.22;;;24.30;49.10;;;;;;602511;235;26849;-74
2022/07/21 05:41:12;;;;;;;5.10;4.40;;;24.40;49.30;;;;;;603956;236;26872;-74
2022/07/21 05:43:39;;;;;;;5.25;4.50;;;24.40;49.50;;;;;;603259;236;26664;-73
2022/07/21 05:46:07;;;;;;;5.62;5.12;;;24.40;49.70;;;;;;602922;236;26600;-73
2022/07/21 05:48:35;;;;;;;5.15;4.65;;;24.40;49.80;;;;;;605562;235;26611;-74
2022/07/21 05:51:02;;;;;;;5.57;5.00;;;24.40;49.70;;;;;;606132;235;26630;-73
2022/07/21 05:53:30;;;;;;;7.62;5.20;;;24.30;50.00;;;;;;607474;235;26683;-72
2022/07/21 05:55:57;;;;;;;5.97;4.87;;;24.30;50.00;;;;;;605542;234;27299;-72
2022/07/21 05:58:24;;;;;;;9.35;5.55;;;24.40;49.80;;;;;;605512;235;26628;-72
2022/07/21 06:03:24;;;;;;;5.78;5.28;;;24.40;50.10;;;;;;606616;234;26649;-73
2022/07/21 06:05:52;;;;;;;6.43;5.78;;;24.50;50.30;;;;;;604773;234;26616;-72
2022/07/21 06:08:20;;;;;;;9.02;5.93;;;24.50;50.20;;;;;;608252;234;26617;-73
2022/07/21 06:10:47;;;;;;;7.72;6.18;;;24.50;50.10;;;;;;605011;235;26673;-72
2022/07/21 06:13:14;;;;;;;6.80;6.22;;;24.50;50.10;;;;;;606009;235;26662;-72
2022/07/21 06:15:42;;;;;;;6.47;5.87;;;24.50;50.10;;;;;;607981;234;27316;-72
2022/07/21 06:18:09;;;;;;;6.82;6.12;;;24.60;50.30;;;;;;606561;234;26639;-72
2022/07/21 06:20:36;;;;;;;8.98;6.57;;;24.60;49.90;;;;;;607753;234;26869;-72
2022/07/21 06:23:03;;;;;;;9.32;7.43;;;24.70;49.90;;;;;;604595;232;26586;-75
2022/07/21 06:25:30;;;;;;;8.48;6.65;;;24.80;49.90;;;;;;603836;236;26823;-73
2022/07/21 06:27:58;;;;;;;10.23;6.90;;;24.80;49.70;;;;;;604557;235;26636;-73
2022/07/21 06:30:26;;;;;;;6.72;6.20;;;24.80;49.50;;;;;;604672;235;27140;-72
2022/07/21 06:32:54;;;;;;;7.55;6.87;;;25.00;49.30;;;;;;603578;235;26600;-70
2022/07/21 06:35:22;;;;;;;7.62;6.93;;;25.10;49.10;;;;;;605037;236;26595;-70
2022/07/21 06:37:50;;;;;;;8.95;7.75;;;25.10;49.20;;;;;;604195;235;26598;-70
2022/07/21 06:40:18;;;;;;;10.85;8.43;;;25.00;49.30;;;;;;606079;235;26585;-74
2022/07/21 06:42:46;;;;;;;8.98;8.07;;;25.00;49.50;;;;;;604124;235;26617;-73
2022/07/21 06:45:14;;;;;;;8.52;7.35;;;25.00;49.40;;;;;;604607;235;26570;-73
2022/07/21 06:47:42;;;;;;;7.97;7.28;;;25.00;49.40;;;;;;605699;235;26556;-73
2022/07/21 06:50:09;;;;;;;8.57;7.78;;;25.00;49.40;;;;;;603437;235;26640;-73
2022/07/21 06:52:36;;;;;;;8.13;7.32;;;25.00;49.40;;;;;;605183;232;26645;-72
2022/07/21 06:55:05;;;;;;;9.10;7.68;;;25.00;49.50;;;;;;604316;235;26676;-72
2022/07/21 06:57:34;;;;;;;8.88;7.95;;;25.30;49.30;;;;;;605193;232;26653;-74
2022/07/21 07:00:03;;;;;;;10.20;7.85;;;25.30;49.00;;;;;;606782;235;26605;-74
2022/07/21 07:02:31;;;;;;;7.55;6.95;;;25.40;48.90;;;;;;605110;235;26675;-74
2022/07/21 07:04:59;;;;;;;8.20;7.37;;;25.40;48.90;;;;;;603852;235;26607;-74
2022/07/21 07:07:29;;;;;;;8.20;7.40;;;25.50;48.70;;;;;;605138;236;26668;-74
2022/07/21 07:09:54;;;;;;;7.53;6.82;;;25.50;48.70;;;;;;604608;235;26672;-74
2022/07/21 07:12:22;;;;;;;7.03;6.40;;;25.60;48.40;;;;;;603729;236;26615;-74
2022/07/21 07:14:49;;;;;;;8.07;7.37;;;25.60;48.30;;;;;;605768;236;26640;-73
2022/07/21 07:17:18;;;;;;;7.82;7.07;;;25.70;48.20;;;;;;605552;235;26650;-72
2022/07/21 07:19:45;;;;;;;10.73;8.38;;;25.70;48.10;;;;;;603661;236;26633;-73
2022/07/21 07:22:13;;;;;;;8.38;7.57;;;25.70;48.10;;;;;;604057;235;26651;-73
2022/07/21 07:24:40;;;;;;;8.82;7.75;;;25.60;48.20;;;;;;605122;234;26625;-74
2022/07/21 07:27:08;;;;;;;10.98;8.52;;;25.80;48.40;;;;;;605588;235;26956;-75
2022/07/21 07:29:36;;;;;;;11.60;7.82;;;25.90;48.20;;;;;;605734;234;26958;-77
2022/07/21 07:32:05;;;;;;;9.90;8.07;;;26.00;47.90;;;;;;604540;237;26615;-79
2022/07/21 07:34:32;;;;;;;8.73;7.82;;;26.00;47.90;;;;;;606007;236;26643;-79
2022/07/21 07:37:00;;;;;;;10.80;8.45;;;26.20;47.90;;;;;;606608;235;26603;-78
2022/07/21 07:39:28;;;;;;;8.73;8.02;;;26.30;47.90;;;;;;608706;234;26623;-77
2022/07/21 07:41:56;;;;;;;10.50;8.65;;;26.10;48.00;;;;;;604134;235;26627;-76
2022/07/21 07:44:24;;;;;;;10.40;7.90;;;26.00;47.90;;;;;;604780;236;26577;-76
2022/07/21 07:46:52;;;;;;;8.80;8.02;;;26.20;47.80;;;;;;604152;236;26600;-76
2022/07/21 07:49:19;;;;;;;7.25;6.65;;;26.20;47.80;;;;;;604728;235;26591;-76
2022/07/21 07:51:46;;;;;;;9.20;8.35;;;26.30;47.60;;;;;;604855;236;26611;-76
2022/07/21 07:54:14;;;;;;;8.32;7.53;;;26.40;47.60;;;;;;604481;236;27233;-78
2022/07/21 07:56:41;;;;;;;9.75;8.75;;;26.50;47.60;;;;;;607194;235;26587;-79
2022/07/21 07:59:08;;;;;;;9.13;8.10;;;26.60;47.60;;;;;;609734;234;26936;-79
2022/07/21 08:01:35;;;;;;;8.65;7.75;;;26.60;47.20;;;;;;606372;235;26616;-79
2022/07/21 08:04:02;;;;;;;8.77;7.85;;;26.90;47.10;;;;;;602195;236;26891;-78
2022/07/21 08:06:30;;;;;;;7.87;6.93;;;26.90;46.90;;;;;;604276;235;26620;-74
2022/07/21 08:08:57;;;;;;;9.98;8.98;;;27.00;46.90;;;;;;603216;235;26862;-75
2022/07/21 08:11:24;;;;;;;10.02;8.73;;;27.30;46.80;;;;;;602934;237;26602;-75
2022/07/21 08:13:52;;;;;;;8.13;7.40;;;27.60;46.40;;;;;;604458;236;26547;-75
2022/07/21 08:16:20;;;;;;;8.60;7.80;;;27.60;46.50;;;;;;605493;235;26632;-74
2022/07/21 08:18:48;;;;;;;10.73;8.32;;;27.50;46.20;;;;;;605378;236;26596;-74
2022/07/21 08:21:15;;;;;;;11.27;8.20;;;27.70;46.60;;;;;;606577;236;26597;-75
2022/07/21 08:23:42;;;;;;;9.57;8.68;;;27.70;46.20;;;;;;604617;236;26614;-74
2022/07/21 08:26:09;;;;;;;10.57;8.10;;;27.70;46.60;;;;;;606328;236;26583;-73
2022/07/21 08:28:37;;;;;;;9.55;7.00;;;27.60;46.20;;;;;;601642;236;26875;-74
2022/07/21 08:31:04;;;;;;;11.38;9.20;;;27.90;45.80;;;;;;602828;235;26651;-75
2022/07/21 08:33:31;;;;;;;6.90;6.30;;;28.30;45.60;;;;;;602130;235;26658;-76
2022/07/21 08:35:59;;;;;;;10.38;7.82;;;28.30;45.20;;;;;;605202;234;26574;-72
2022/07/21 08:38:26;;;;;;;7.25;6.53;;;28.40;45.10;;;;;;608054;235;26627;-75
2022/07/21 08:40:53;;;;;;;10.07;8.48;;;28.40;44.90;;;;;;601870;237;26647;-76
2022/07/21 08:43:21;;;;;;;8.05;7.30;;;28.10;44.80;;;;;;603315;235;26574;-73
2022/07/21 08:45:49;;;;;;;10.18;7.93;;;28.10;45.00;;;;;;607124;235;26572;-75
2022/07/21 08:48:19;;;;;;;7.05;6.35;;;28.10;45.00;;;;;;605695;236;26629;-74
2022/07/21 08:50:43;;;;;;;8.60;7.62;;;28.30;44.90;;;;;;607431;235;26578;-74
2022/07/21 08:53:11;;;;;;;8.80;7.90;;;28.30;45.30;;;;;;603454;235;26648;-75
2022/07/21 08:55:39;;;;;;;9.32;7.82;;;28.20;45.00;;;;;;605930;235;26674;-76
2022/07/21 08:58:05;;;;;;;9.73;8.40;;;28.20;45.10;;;;;;604331;236;26841;-76
2022/07/21 09:00:34;;;;;;;12.52;8.00;;;28.10;45.30;;;;;;603868;236;26584;-74
2022/07/21 09:03:09;;;;;;;8.85;8.00;;;28.20;45.40;;;;;;606019;236;26882;-76
2022/07/21 09:05:37;;;;;;;11.80;7.93;;;28.00;45.30;;;;;;607124;236;26600;-74
2022/07/21 09:08:06;;;;;;;9.82;7.90;;;28.20;45.10;;;;;;609234;235;26622;-73
2022/07/21 09:10:33;;;;;;;9.18;7.62;;;28.20;45.10;;;;;;608133;236;26621;-75
2022/07/21 09:13:01;;;;;;;12.95;8.85;;;28.50;44.50;;;;;;605452;236;26624;-76
2022/07/21 09:15:31;;;;;;;9.20;8.30;;;28.60;44.70;;;;;;608070;235;26639;-75
2022/07/21 09:18:06;;;;;;;9.43;8.43;;;28.80;44.40;;;;;;604747;235;26582;-78
2022/07/21 09:20:33;;;;;;;9.02;8.13;;;28.90;43.80;;;;;;603455;236;26642;-78
2022/07/21 09:23:04;;;;;;;8.77;7.72;;;28.80;43.70;;;;;;604283;236;26621;-78
2022/07/21 09:25:35;;;;;;;10.32;8.07;;;29.10;43.70;;;;;;602890;235;26629;-76
2022/07/21 09:28:07;;;;;;;11.35;7.93;;;29.30;44.10;;;;;;603047;234;26635;-76
2022/07/21 09:30:46;;;;;;;10.60;8.15;;;29.20;43.50;;;;;;607752;236;26670;-74
2022/07/21 09:33:20;;;;;;;11.82;8.05;;;29.00;43.80;;;;;;603730;237;26863;-71
2022/07/21 09:35:55;;;;;;;11.77;7.53;;;28.80;44.00;;;;;;602020;235;26991;-71
2022/07/21 09:38:23;;;;;;;6.35;5.78;;;28.70;43.80;;;;;;602430;234;26635;-72
2022/07/21 09:40:51;;;;;;;12.10;8.48;;;28.90;43.60;;;;;;603724;238;26599;-72
2022/07/21 09:43:31;;;;;;;9.73;8.05;;;28.90;43.60;;;;;;602880;237;26627;-78
2022/07/21 09:46:00;;;;;;;81.20;21.73;;;29.10;43.30;;;;;;602542;235;26668;-77
2022/07/21 09:48:30;;;;;;;108.60;26.17;;;29.20;43.10;;;;;;604965;234;26659;-77
2022/07/21 09:50:57;;;;;;;98.65;25.33;;;29.20;43.10;;;;;;610676;234;26872;-73
2022/07/21 09:53:24;;;;;;;33.63;13.23;;;29.40;43.00;;;;;;603341;234;26622;-72
2022/07/21 09:55:52;;;;;;;87.75;23.75;;;29.90;42.60;;;;;;609234;235;26593;-71
2022/07/21 09:58:19;;;;;;;64.50;18.95;;;30.40;41.90;;;;;;602208;239;26564;-71
2022/07/21 10:00:49;;;;;;;50.42;17.67;;;31.00;41.90;;;;;;602187;237;26594;-71
2022/07/21 10:03:15;;;;;;;42.13;17.30;;;30.90;41.50;;;;;;604249;238;26644;-72
2022/07/21 10:05:42;;;;;;;45.12;15.25;;;30.80;40.40;;;;;;602246;237;26553;-71
2022/07/21 10:08:10;;;;;;;37.38;13.62;;;30.40;40.80;;;;;;604128;236;26554;-71
2022/07/21 10:10:37;;;;;;;39.92;14.68;;;30.40;40.70;;;;;;607727;236;26621;-71
2022/07/21 10:13:05;;;;;;;11.18;8.05;;;30.70;40.70;;;;;;604879;238;26570;-72
2022/07/21 10:15:32;;;;;;;18.92;9.65;;;30.70;40.20;;;;;;602263;237;26583;-71
2022/07/21 10:18:00;;;;;;;12.93;9.18;;;30.70;40.30;;;;;;602273;238;26583;-72
2022/07/21 10:20:28;;;;;;;11.45;8.50;;;30.90;40.30;;;;;;603595;237;26578;-72
2022/07/21 10:23:09;;;;;;;14.90;8.60;;;30.90;40.20;;;;;;607592;235;26670;-72
2022/07/21 10:25:36;;;;;;;13.40;8.40;;;30.80;40.10;;;;;;610009;234;26885;-72
2022/07/21 10:28:20;;;;;;;13.52;8.35;;;30.70;40.60;;;;;;604479;238;27035;-72
2022/07/21 10:30:46;;;;;;;14.80;8.70;;;30.60;40.30;;;;;;602809;237;26574;-72
2022/07/21 10:33:14;;;;;;;11.02;7.60;;;30.20;40.40;;;;;;601697;235;26908;-72
2022/07/21 10:35:42;;;;;;;11.12;7.75;;;30.20;40.70;;;;;;603050;235;26918;-72
2022/07/21 10:38:09;;;;;;;6.05;5.47;;;30.30;40.80;;;;;;602358;238;26598;-72
2022/07/21 10:40:36;;;;;;;4.93;4.53;;;30.60;40.60;;;;;;604567;235;26870;-72
2022/07/21 10:43:39;;;;;;;7.82;6.68;;;30.80;40.50;;;;;;602637;236;26659;-71
2022/07/21 10:46:06;;;;;;;5.05;4.65;;;30.90;40.30;;;;;;598304;237;26974;-71
2022/07/21 10:48:52;;;;;;;6.12;4.97;;;30.70;40.60;;;;;;601947;236;26644;-71
2022/07/21 10:51:19;;;;;;;7.65;5.37;;;30.40;40.60;;;;;;607356;235;26872;-71
2022/07/21 10:53:47;;;;;;;5.00;4.60;;;29.80;41.10;;;;;;604950;236;26619;-71
2022/07/21 10:56:28;;;;;;;5.87;5.32;;;29.50;41.60;;;;;;604054;234;26771;-71
2022/07/21 10:58:55;;;;;;;5.15;4.68;;;29.30;41.80;;;;;;603539;235;26839;-71
2022/07/21 11:01:24;;;;;;;7.10;5.00;;;29.50;41.80;;;;;;607895;235;26551;-71
2022/07/21 11:03:49;;;;;;;4.57;4.18;;;29.50;41.50;;;;;;606261;235;26833;-71
2022/07/21 11:06:19;;;;;;;4.50;4.10;;;29.90;41.40;;;;;;606118;235;26623;-71
2022/07/21 11:08:46;;;;;;;6.82;4.75;;;29.90;41.40;;;;;;605663;236;26592;-71
2022/07/21 11:11:28;;;;;;;4.35;4.05;;;30.00;41.10;;;;;;605828;236;27375;-71
2022/07/21 11:14:21;;;;;;;4.50;4.10;;;29.80;41.10;;;;;;603665;238;26874;-71
2022/07/21 11:17:03;;;;;;;6.70;4.03;;;29.80;40.90;;;;;;605621;236;26851;-71
2022/07/21 11:19:46;;;;;;;4.55;4.15;;;30.00;40.80;;;;;;605527;232;26582;-71
2022/07/21 11:22:14;;;;;;;4.28;3.37;;;30.20;40.70;;;;;;609562;235;26872;-71
2022/07/21 11:24:42;;;;;;;5.53;4.00;;;30.30;40.50;;;;;;605572;236;26583;-71
2022/07/21 11:27:11;;;;;;;4.35;3.45;;;30.80;40.30;;;;;;610899;235;26836;-71
2022/07/21 11:29:38;;;;;;;4.43;4.10;;;30.80;40.30;;;;;;602123;238;26613;-71
2022/07/21 11:32:06;;;;;;;3.83;3.53;;;31.30;39.80;;;;;;604206;235;26611;-75
2022/07/21 11:34:48;;;;;;;4.37;3.97;;;31.50;39.40;;;;;;602497;236;26593;-74
2022/07/21 11:37:15;;;;;;;5.68;4.60;;;31.50;39.40;;;;;;606483;236;26961;-74
2022/07/21 11:39:42;;;;;;;7.75;4.65;;;31.70;39.20;;;;;;609678;235;26585;-75
2022/07/21 11:42:10;;;;;;;6.70;4.93;;;31.60;39.00;;;;;;602800;235;26921;-75
2022/07/21 11:44:38;;;;;;;5.22;4.07;;;31.00;40.00;;;;;;603469;235;26574;-75
2022/07/21 11:47:06;;;;;;;3.90;3.60;;;30.90;39.90;;;;;;603575;236;26574;-75
2022/07/21 11:49:34;;;;;;;4.70;4.00;;;30.80;39.80;;;;;;604402;235;26631;-76
2022/07/21 11:52:03;;;;;;;4.62;3.70;;;30.50;40.30;;;;;;604783;235;26678;-76
2022/07/21 11:54:35;;;;;;;4.68;4.25;;;30.50;40.30;;;;;;605516;235;26874;-75
2022/07/21 11:57:03;;;;;;;4.35;3.90;;;30.50;40.30;;;;;;603139;237;26643;-75
2022/07/21 11:59:31;;;;;;;4.22;3.90;;;30.70;40.30;;;;;;607308;235;26607;-75
2022/07/21 12:01:59;;;;;;;5.95;4.70;;;30.60;40.50;;;;;;602146;236;26679;-74
2022/07/21 12:04:43;;;;;;;4.20;3.87;;;30.60;40.50;;;;;;604311;236;26635;-75
2022/07/21 12:07:17;;;;;;;5.03;4.60;;;30.30;40.80;;;;;;604271;235;26642;-73
2022/07/21 12:09:44;;;;;;;4.45;4.05;;;30.10;41.20;;;;;;603727;235;26580;-79
2022/07/21 12:12:12;;;;;;;3.83;3.53;;;30.10;41.00;;;;;;604731;235;26667;-69
2022/07/21 12:14:42;;;;;;;4.72;4.00;;;29.80;41.30;;;;;;608970;234;26662;-69
2022/07/21 12:17:10;;;;;;;4.45;3.90;;;29.60;41.70;;;;;;607069;234;26624;-71
2022/07/21 12:19:37;;;;;;;6.85;4.80;;;29.50;41.70;;;;;;606261;236;26593;-71
2022/07/21 12:22:05;;;;;;;4.97;4.43;;;29.30;41.90;;;;;;609577;235;26616;-70
2022/07/21 12:24:45;;;;;;;6.05;4.35;;;28.70;43.00;;;;;;604331;236;26789;-69
2022/07/21 12:27:12;;;;;;;5.15;4.30;;;28.70;43.00;;;;;;608820;235;26583;-71
2022/07/21 12:29:40;;;;;;;7.55;4.90;;;28.10;43.80;;;;;;604470;230;26594;-71
2022/07/21 12:32:08;;;;;;;5.25;4.40;;;27.90;44.00;;;;;;602611;237;26619;-68
2022/07/21 12:34:49;;;;;;;4.18;3.67;;;27.90;44.30;;;;;;602658;235;26574;-69
2022/07/21 12:37:16;;;;;;;4.43;3.90;;;27.80;44.30;;;;;;609851;235;26585;-70
2022/07/21 12:42:27;;;;;;;9.95;6.15;;;27.60;44.80;;;;;;608019;234;26648;-73
2022/07/21 12:44:55;;;;;;;11.52;5.90;;;27.70;45.20;;;;;;602864;236;26573;-69
2022/07/21 12:47:23;;;;;;;8.20;5.15;;;27.80;45.40;;;;;;603057;236;26612;-74
2022/07/21 12:50:05;;;;;;;10.25;4.82;;;27.80;45.60;;;;;;602415;236;26672;-69
2022/07/21 12:52:32;;;;;;;10.00;5.30;;;27.70;45.50;;;;;;605990;235;26598;-68
2022/07/21 12:54:59;;;;;;;5.70;4.40;;;27.90;45.70;;;;;;606239;236;26850;-68
2022/07/21 12:57:28;;;;;;;4.47;4.07;;;28.00;45.70;;;;;;603782;236;26636;-68
2022/07/21 12:59:55;;;;;;;5.75;4.78;;;28.00;45.90;;;;;;607005;236;26639;-68